AFL1032 USRR-UUEE
Flight info
| Callsign | AFL1032 |
|---|---|
| Flight time | N/A |
| Altitude | 40000 |
| Route | ANIKI1W ANIKI G484 HMN L870 UNISO N869 REKPA N181 ROMTA ROMTA3E |
| Aircraft | A359/H-SDE2E3GHIJ3J4J5LM1ORWXY/LB1D1 |
Departure
| Time | 2026-05-07 14:20 |
|---|---|
| Airport | Surgut International Airport (USRR) |
Arrival
| Time | N/A |
|---|---|
| Airport | Sheremetyevo International Airport (UUEE) |
| Time | Latitude | Longitude | Altitude | Speed | Heading |
|---|---|---|---|---|---|
| 2026-05-07 14:11 | 61.34123 | 73.39826 | 190 ft | 0 kts | 180° |
| 2026-05-07 14:14 | 61.34130 | 73.39826 | 190 ft | 0 kts | 180° |
| 2026-05-07 14:14 | 61.34144 | 73.39825 | 190 ft | 2 kts | 162° |
| 2026-05-07 14:14 | 61.34158 | 73.39811 | 191 ft | 2 kts | 140° |
| 2026-05-07 14:14 | 61.34168 | 73.39789 | 190 ft | 2 kts | 121° |
| 2026-05-07 14:15 | 61.34174 | 73.39761 | 190 ft | 2 kts | 101° |
| 2026-05-07 14:15 | 61.34175 | 73.39741 | 190 ft | 1 kts | 89° |
| 2026-05-07 14:15 | 61.34175 | 73.39734 | 189 ft | 0 kts | 89° |
| 2026-05-07 14:15 | 61.34174 | 73.39734 | 189 ft | 0 kts | 89° |
| 2026-05-07 14:16 | 61.34175 | 73.39735 | 189 ft | 0 kts | 89° |
| 2026-05-07 14:16 | 61.34174 | 73.39735 | 189 ft | 0 kts | 89° |
| 2026-05-07 14:16 | 61.34174 | 73.39740 | 190 ft | 0 kts | 88° |
| 2026-05-07 14:17 | 61.34175 | 73.39754 | 190 ft | 3 kts | 89° |
| 2026-05-07 14:17 | 61.34174 | 73.39902 | 191 ft | 17 kts | 91° |
| 2026-05-07 14:17 | 61.34174 | 73.40241 | 195 ft | 27 kts | 87° |
| 2026-05-07 14:17 | 61.34178 | 73.40650 | 195 ft | 29 kts | 89° |
| 2026-05-07 14:18 | 61.34181 | 73.41067 | 195 ft | 28 kts | 88° |
| 2026-05-07 14:18 | 61.34183 | 73.41490 | 192 ft | 28 kts | 88° |
| 2026-05-07 14:18 | 61.34187 | 73.41906 | 187 ft | 30 kts | 87° |
| 2026-05-07 14:18 | 61.34187 | 73.42291 | 185 ft | 19 kts | 91° |
| 2026-05-07 14:19 | 61.34230 | 73.42489 | 182 ft | 15 kts | 34° |
| 2026-05-07 14:19 | 61.34321 | 73.42609 | 185 ft | 15 kts | 35° |
| 2026-05-07 14:19 | 61.34371 | 73.42686 | 186 ft | 6 kts | 359° |
| 2026-05-07 14:19 | 61.34391 | 73.42629 | 187 ft | 5 kts | 281° |
| 2026-05-07 14:20 | 61.34392 | 73.42452 | 188 ft | 35 kts | 269° |
| 2026-05-07 14:20 | 61.34398 | 73.41404 | 199 ft | 108 kts | 269° |
| 2026-05-07 14:20 | 61.34376 | 73.39402 | 322 ft | 156 kts | 272° |
| 2026-05-07 14:20 | 61.34352 | 73.37170 | 1040 ft | 157 kts | 276° |
| 2026-05-07 14:21 | 61.34187 | 73.35004 | 1883 ft | 162 kts | 246° |
| 2026-05-07 14:21 | 61.33244 | 73.33587 | 2511 ft | 179 kts | 207° |
| 2026-05-07 14:21 | 61.32019 | 73.32732 | 2916 ft | 192 kts | 209° |
| 2026-05-07 14:21 | 61.31031 | 73.30981 | 3282 ft | 190 kts | 249° |
| 2026-05-07 14:22 | 61.30533 | 73.28400 | 3713 ft | 201 kts | 258° |
| 2026-05-07 14:22 | 61.30062 | 73.25534 | 4225 ft | 218 kts | 257° |
| 2026-05-07 14:22 | 61.29528 | 73.22502 | 4753 ft | 234 kts | 255° |
| 2026-05-07 14:22 | 61.28913 | 73.19252 | 5370 ft | 249 kts | 253° |
| 2026-05-07 14:23 | 61.28245 | 73.15920 | 6271 ft | 252 kts | 252° |
| 2026-05-07 14:23 | 61.27564 | 73.12613 | 7219 ft | 253 kts | 252° |
| 2026-05-07 14:23 | 61.26870 | 73.09291 | 8179 ft | 254 kts | 252° |
| 2026-05-07 14:23 | 61.26171 | 73.05969 | 9119 ft | 255 kts | 252° |
| 2026-05-07 14:24 | 61.25463 | 73.02621 | 10082 ft | 256 kts | 252° |
| 2026-05-07 14:24 | 61.24752 | 72.99270 | 11030 ft | 256 kts | 252° |
| 2026-05-07 14:24 | 61.24041 | 72.95929 | 11950 ft | 258 kts | 252° |
| 2026-05-07 14:24 | 61.23330 | 72.92600 | 12886 ft | 256 kts | 251° |
| 2026-05-07 14:25 | 61.22623 | 72.89291 | 13800 ft | 254 kts | 251° |
| 2026-05-07 14:25 | 61.21917 | 72.86010 | 14766 ft | 250 kts | 251° |
| 2026-05-07 14:25 | 61.21217 | 72.82755 | 15592 ft | 251 kts | 251° |
| 2026-05-07 14:25 | 61.20502 | 72.79424 | 16246 ft | 257 kts | 251° |
| 2026-05-07 14:26 | 61.19774 | 72.76038 | 16959 ft | 260 kts | 250° |
| 2026-05-07 14:26 | 61.19042 | 72.72649 | 17695 ft | 263 kts | 251° |
| 2026-05-07 14:26 | 61.18304 | 72.69230 | 18428 ft | 265 kts | 250° |
| 2026-05-07 14:26 | 61.17548 | 72.65751 | 19163 ft | 267 kts | 251° |
| 2026-05-07 14:27 | 61.16784 | 72.62244 | 19843 ft | 270 kts | 251° |
| 2026-05-07 14:27 | 61.16014 | 72.58693 | 20512 ft | 273 kts | 251° |
| 2026-05-07 14:27 | 61.15239 | 72.55138 | 21175 ft | 276 kts | 251° |
| 2026-05-07 14:27 | 61.14447 | 72.51501 | 21863 ft | 278 kts | 251° |
| 2026-05-07 14:28 | 61.13658 | 72.47891 | 22530 ft | 280 kts | 251° |
| 2026-05-07 14:28 | 61.12849 | 72.44192 | 23155 ft | 283 kts | 251° |
| 2026-05-07 14:28 | 61.12042 | 72.40517 | 23763 ft | 286 kts | 251° |
| 2026-05-07 14:28 | 61.11214 | 72.36738 | 24397 ft | 288 kts | 251° |
| 2026-05-07 14:29 | 61.10389 | 72.32980 | 24989 ft | 291 kts | 250° |
| 2026-05-07 14:29 | 61.09551 | 72.29168 | 25569 ft | 294 kts | 250° |
| 2026-05-07 14:29 | 61.08701 | 72.25317 | 26110 ft | 298 kts | 250° |
| 2026-05-07 14:29 | 61.07840 | 72.21412 | 26657 ft | 301 kts | 250° |
| 2026-05-07 14:30 | 61.06978 | 72.17520 | 27193 ft | 303 kts | 250° |
| 2026-05-07 14:30 | 61.06097 | 72.13551 | 27693 ft | 307 kts | 250° |
| 2026-05-07 14:30 | 61.05204 | 72.09541 | 28194 ft | 309 kts | 250° |
| 2026-05-07 14:30 | 61.04302 | 72.05496 | 28681 ft | 312 kts | 250° |
| 2026-05-07 14:31 | 61.03406 | 72.01493 | 29151 ft | 314 kts | 249° |
| 2026-05-07 14:31 | 61.02503 | 71.97391 | 29606 ft | 316 kts | 251° |
| 2026-05-07 14:31 | 61.01731 | 71.93117 | 30045 ft | 317 kts | 255° |
| 2026-05-07 14:31 | 61.01137 | 71.88784 | 30484 ft | 318 kts | 258° |
| 2026-05-07 14:32 | 61.00708 | 71.84320 | 30876 ft | 320 kts | 262° |
| 2026-05-07 14:32 | 61.00450 | 71.79717 | 31226 ft | 322 kts | 266° |
| 2026-05-07 14:32 | 61.00377 | 71.75095 | 31547 ft | 325 kts | 270° |
| 2026-05-07 14:32 | 61.00445 | 71.70428 | 31882 ft | 328 kts | 271° |
| 2026-05-07 14:33 | 61.00523 | 71.65756 | 32237 ft | 329 kts | 271° |
| 2026-05-07 14:33 | 61.00606 | 71.61085 | 32565 ft | 331 kts | 271° |
| 2026-05-07 14:33 | 61.00692 | 71.56324 | 32880 ft | 333 kts | 271° |
| 2026-05-07 14:33 | 61.00778 | 71.51570 | 33205 ft | 334 kts | 272° |
| 2026-05-07 14:34 | 61.00867 | 71.46778 | 33513 ft | 336 kts | 272° |
| 2026-05-07 14:34 | 61.00954 | 71.41976 | 33803 ft | 337 kts | 272° |
| 2026-05-07 14:34 | 61.01043 | 71.37118 | 34076 ft | 339 kts | 272° |
| 2026-05-07 14:34 | 61.01128 | 71.32281 | 34312 ft | 341 kts | 271° |
| 2026-05-07 14:35 | 61.01213 | 71.27406 | 34570 ft | 343 kts | 271° |
| 2026-05-07 14:35 | 61.01298 | 71.22505 | 34785 ft | 345 kts | 272° |
| 2026-05-07 14:35 | 61.01380 | 71.17532 | 34993 ft | 347 kts | 271° |
| 2026-05-07 14:35 | 61.01462 | 71.12576 | 35150 ft | 350 kts | 271° |
| 2026-05-07 14:36 | 61.01541 | 71.07563 | 35347 ft | 352 kts | 271° |
| 2026-05-07 14:36 | 61.01619 | 71.02530 | 35498 ft | 355 kts | 271° |
| 2026-05-07 14:36 | 61.01699 | 70.97411 | 35690 ft | 357 kts | 271° |
| 2026-05-07 14:36 | 61.01778 | 70.92306 | 35878 ft | 359 kts | 271° |
| 2026-05-07 14:37 | 61.01861 | 70.87170 | 36033 ft | 361 kts | 271° |
| 2026-05-07 14:37 | 61.02018 | 70.76833 | 36325 ft | 367 kts | 271° |
| 2026-05-07 14:37 | 61.02093 | 70.71555 | 36482 ft | 369 kts | 271° |
| 2026-05-07 14:38 | 61.02167 | 70.66281 | 36662 ft | 371 kts | 271° |
| 2026-05-07 14:38 | 61.02240 | 70.61025 | 36803 ft | 373 kts | 271° |
| 2026-05-07 14:38 | 61.02310 | 70.55659 | 36958 ft | 375 kts | 271° |
| 2026-05-07 14:38 | 61.02377 | 70.50249 | 37086 ft | 378 kts | 271° |
| 2026-05-07 14:39 | 61.02441 | 70.44843 | 37220 ft | 380 kts | 271° |
| 2026-05-07 14:39 | 61.02505 | 70.39423 | 37333 ft | 382 kts | 271° |
| 2026-05-07 14:39 | 61.02627 | 70.28409 | 37496 ft | 390 kts | 271° |
| 2026-05-07 14:40 | 61.02741 | 70.17208 | 37702 ft | 395 kts | 271° |
| 2026-05-07 14:40 | 61.02796 | 70.11521 | 37832 ft | 397 kts | 271° |
| 2026-05-07 14:40 | 61.02848 | 70.05836 | 37925 ft | 399 kts | 271° |
| 2026-05-07 14:41 | 61.02900 | 70.00137 | 38037 ft | 401 kts | 271° |
| 2026-05-07 14:41 | 61.02947 | 69.94436 | 38168 ft | 403 kts | 271° |
| 2026-05-07 14:41 | 61.02992 | 69.88605 | 38280 ft | 405 kts | 271° |
| 2026-05-07 14:41 | 61.03033 | 69.82902 | 38581 ft | 401 kts | 270° |
| 2026-05-07 14:42 | 61.03071 | 69.77261 | 38962 ft | 396 kts | 271° |
| 2026-05-07 14:42 | 61.03104 | 69.71632 | 39215 ft | 394 kts | 271° |
| 2026-05-07 14:42 | 61.03136 | 69.66009 | 39376 ft | 395 kts | 271° |
| 2026-05-07 14:42 | 61.03166 | 69.60300 | 39513 ft | 396 kts | 271° |
| 2026-05-07 14:43 | 61.03193 | 69.54699 | 39656 ft | 397 kts | 271° |
| 2026-05-07 14:43 | 61.03216 | 69.49022 | 39769 ft | 398 kts | 271° |
| 2026-05-07 14:43 | 61.03257 | 69.37524 | 39894 ft | 403 kts | 271° |
| 2026-05-07 14:44 | 61.03287 | 69.25957 | 39908 ft | 410 kts | 270° |
| 2026-05-07 14:44 | 61.03433 | 69.14172 | 39914 ft | 418 kts | 273° |
| 2026-05-07 14:45 | 61.04044 | 69.02171 | 39906 ft | 425 kts | 276° |
| 2026-05-07 14:45 | 61.04844 | 68.89996 | 39924 ft | 431 kts | 277° |
| 2026-05-07 14:46 | 61.05644 | 68.77753 | 39917 ft | 436 kts | 277° |
| 2026-05-07 14:46 | 61.06444 | 68.65377 | 39903 ft | 440 kts | 277° |
| 2026-05-07 14:47 | 61.07242 | 68.52868 | 39901 ft | 444 kts | 277° |
| 2026-05-07 14:47 | 61.08034 | 68.40237 | 39898 ft | 447 kts | 277° |
| 2026-05-07 14:48 | 61.08815 | 68.27522 | 39908 ft | 450 kts | 276° |
| 2026-05-07 14:48 | 61.09595 | 68.14687 | 39911 ft | 452 kts | 276° |
| 2026-05-07 14:49 | 61.10371 | 68.01772 | 39891 ft | 454 kts | 276° |
| 2026-05-07 14:49 | 61.11127 | 67.88940 | 39899 ft | 454 kts | 276° |
| 2026-05-07 14:50 | 61.11868 | 67.76057 | 39896 ft | 454 kts | 276° |
| 2026-05-07 14:50 | 61.12602 | 67.63088 | 39891 ft | 454 kts | 276° |
| 2026-05-07 14:51 | 61.13324 | 67.50119 | 39898 ft | 455 kts | 276° |
| 2026-05-07 14:51 | 61.14028 | 67.37195 | 39905 ft | 455 kts | 276° |
| 2026-05-07 14:52 | 61.14722 | 67.24200 | 39903 ft | 455 kts | 275° |
| 2026-05-07 14:52 | 61.15400 | 67.11294 | 39908 ft | 455 kts | 275° |
| 2026-05-07 14:53 | 61.16071 | 66.98283 | 39916 ft | 455 kts | 275° |
| 2026-05-07 14:53 | 61.16729 | 66.85313 | 39914 ft | 455 kts | 275° |
| 2026-05-07 14:54 | 61.17376 | 66.72298 | 39924 ft | 455 kts | 275° |
| 2026-05-07 14:54 | 61.18008 | 66.59306 | 39910 ft | 455 kts | 275° |
| 2026-05-07 14:55 | 61.18626 | 66.46322 | 39914 ft | 455 kts | 275° |
| 2026-05-07 14:55 | 61.19236 | 66.33276 | 39908 ft | 455 kts | 274° |
| 2026-05-07 14:56 | 61.19833 | 66.20174 | 39917 ft | 455 kts | 274° |
| 2026-05-07 14:56 | 61.20410 | 66.07218 | 39931 ft | 456 kts | 275° |
| 2026-05-07 14:57 | 61.20982 | 65.94153 | 39923 ft | 456 kts | 275° |
| 2026-05-07 14:57 | 61.21540 | 65.81149 | 39928 ft | 456 kts | 274° |
| 2026-05-07 14:58 | 61.22090 | 65.67996 | 39944 ft | 456 kts | 275° |
| 2026-05-07 14:58 | 61.22620 | 65.54997 | 39933 ft | 456 kts | 275° |
| 2026-05-07 14:59 | 61.23141 | 65.41935 | 39940 ft | 456 kts | 274° |
| 2026-05-07 14:59 | 61.23650 | 65.28836 | 39947 ft | 456 kts | 274° |
| 2026-05-07 15:00 | 61.24145 | 65.15742 | 39945 ft | 455 kts | 274° |
| 2026-05-07 15:00 | 61.24626 | 65.02676 | 39950 ft | 455 kts | 274° |
| 2026-05-07 15:01 | 61.25093 | 64.89643 | 39948 ft | 454 kts | 274° |
| 2026-05-07 15:01 | 61.25550 | 64.76584 | 39943 ft | 454 kts | 274° |
| 2026-05-07 15:02 | 61.25987 | 64.63662 | 39951 ft | 455 kts | 274° |
| 2026-05-07 15:02 | 61.26418 | 64.50594 | 39946 ft | 455 kts | 274° |
| 2026-05-07 15:03 | 61.26863 | 64.37483 | 39947 ft | 455 kts | 274° |
| 2026-05-07 15:03 | 61.27288 | 64.24504 | 39961 ft | 455 kts | 273° |
| 2026-05-07 15:04 | 61.27700 | 64.11449 | 39951 ft | 455 kts | 273° |
| 2026-05-07 15:04 | 61.28099 | 63.98342 | 39967 ft | 455 kts | 273° |
| 2026-05-07 15:05 | 61.28449 | 63.85325 | 39965 ft | 455 kts | 271° |
| 2026-05-07 15:05 | 61.28341 | 63.72223 | 39970 ft | 455 kts | 266° |
| 2026-05-07 15:06 | 61.27668 | 63.59170 | 39984 ft | 456 kts | 262° |
| 2026-05-07 15:06 | 61.26437 | 63.46298 | 39974 ft | 456 kts | 258° |
| 2026-05-07 15:07 | 61.24849 | 63.33585 | 39973 ft | 456 kts | 257° |
| 2026-05-07 15:07 | 61.23252 | 63.20932 | 39982 ft | 457 kts | 256° |
| 2026-05-07 15:08 | 61.21616 | 63.08135 | 39975 ft | 458 kts | 256° |
| 2026-05-07 15:08 | 61.19976 | 62.95451 | 39988 ft | 459 kts | 256° |
| 2026-05-07 15:09 | 61.18314 | 62.82741 | 39976 ft | 459 kts | 256° |
| 2026-05-07 15:09 | 61.16639 | 62.70015 | 39979 ft | 458 kts | 256° |
| 2026-05-07 15:10 | 61.14949 | 62.57312 | 40009 ft | 458 kts | 256° |
| 2026-05-07 15:10 | 61.13258 | 62.44713 | 39989 ft | 458 kts | 256° |
| 2026-05-07 15:11 | 61.11548 | 62.32108 | 39992 ft | 458 kts | 256° |
| 2026-05-07 15:11 | 61.09813 | 62.19393 | 40005 ft | 457 kts | 256° |
| 2026-05-07 15:12 | 61.08083 | 62.06827 | 39982 ft | 457 kts | 256° |
| 2026-05-07 15:12 | 61.06339 | 61.94270 | 39974 ft | 457 kts | 256° |
| 2026-05-07 15:13 | 61.04574 | 61.81650 | 39983 ft | 457 kts | 256° |
| 2026-05-07 15:13 | 61.02810 | 61.69163 | 39979 ft | 457 kts | 255° |
| 2026-05-07 15:14 | 61.01027 | 61.56648 | 39979 ft | 457 kts | 255° |
| 2026-05-07 15:14 | 60.99239 | 61.44008 | 39988 ft | 457 kts | 256° |
| 2026-05-07 15:15 | 60.97470 | 61.31553 | 39994 ft | 458 kts | 255° |
| 2026-05-07 15:15 | 60.95666 | 61.18937 | 39993 ft | 458 kts | 255° |
| 2026-05-07 15:16 | 60.93862 | 61.06451 | 39994 ft | 458 kts | 255° |
| 2026-05-07 15:16 | 60.92032 | 60.93888 | 39992 ft | 458 kts | 255° |
| 2026-05-07 15:17 | 60.90205 | 60.81464 | 40006 ft | 457 kts | 255° |
| 2026-05-07 15:17 | 60.88340 | 60.69017 | 39998 ft | 457 kts | 255° |
| 2026-05-07 15:18 | 60.86453 | 60.56540 | 40000 ft | 457 kts | 255° |
| 2026-05-07 15:18 | 60.84573 | 60.44111 | 40011 ft | 458 kts | 255° |
| 2026-05-07 15:19 | 60.82689 | 60.31690 | 40002 ft | 458 kts | 254° |
| 2026-05-07 15:19 | 60.80809 | 60.19342 | 40002 ft | 458 kts | 254° |
| 2026-05-07 15:20 | 60.78906 | 60.06942 | 40000 ft | 458 kts | 254° |
| 2026-05-07 15:20 | 60.76998 | 59.94606 | 40005 ft | 458 kts | 254° |
| 2026-05-07 15:21 | 60.75073 | 59.82238 | 40010 ft | 458 kts | 254° |
| 2026-05-07 15:21 | 60.73134 | 59.69878 | 40013 ft | 458 kts | 254° |
| 2026-05-07 15:22 | 60.71208 | 59.57690 | 40002 ft | 457 kts | 254° |
| 2026-05-07 15:22 | 60.69238 | 59.45309 | 40004 ft | 458 kts | 254° |
| 2026-05-07 15:23 | 60.67258 | 59.32957 | 40003 ft | 457 kts | 253° |
| 2026-05-07 15:23 | 60.65298 | 59.20779 | 39999 ft | 457 kts | 253° |
| 2026-05-07 15:24 | 60.63301 | 59.08465 | 40000 ft | 458 kts | 253° |
| 2026-05-07 15:24 | 60.61308 | 58.96265 | 40012 ft | 457 kts | 253° |
| 2026-05-07 15:25 | 60.59297 | 58.84060 | 40001 ft | 458 kts | 253° |
| 2026-05-07 15:25 | 60.57278 | 58.71881 | 40012 ft | 457 kts | 253° |
| 2026-05-07 15:26 | 60.55241 | 58.59679 | 40019 ft | 458 kts | 253° |
| 2026-05-07 15:26 | 60.53218 | 58.47639 | 40019 ft | 458 kts | 253° |
| 2026-05-07 15:27 | 60.51480 | 58.37352 | 40013 ft | 458 kts | 253° |
| 2026-05-07 15:27 | 60.49074 | 58.23204 | 40015 ft | 457 kts | 252° |
| 2026-05-07 15:28 | 60.47005 | 58.11105 | 40021 ft | 457 kts | 252° |
| 2026-05-07 15:28 | 60.44926 | 57.99057 | 40023 ft | 457 kts | 252° |
| 2026-05-07 15:29 | 60.44573 | 57.97015 | 40030 ft | 457 kts | 252° |